Terminal Aerodrome Forecast
Issued by NWS

Home | Current Version | Previous Version | Text Only | Print | Product List | Glossary On
Versions: 1 2 3 4 5 6 7 8 9 10 11 12 13 14
785
FTUS43 KICT 181518 AAB
TAFSLN
TAF AMD
KSLN 181518Z 1815/1912 31026G39KT P6SM SCT040
     FM182300 33022G26KT P6SM SKC
     FM190030 33017KT P6SM SKC
     FM190100 34009KT P6SM SKC=

USA.gov is the U.S. government's official web portal to all federal, state and local government web resources and services.